Language selection

Features

My Weather Profile Weather Topics  | 

James Bay - southern half: Past 24 Hour Conditions

 

Cape Dorset Airport

12:00 AM EST 13 December 2019
Disclaimer

This table is a summary of hourly weather conditions for the past 24 hours.
Please note that these observations might not always be representative of weather conditions over their associated marine area.

Date / Time
(EST)
Wind(knots) Conditions Visibility(km) Pressure(kPa) Air tempC) Relative humidity(%) Dew pointC) Wind Chill
13 December 2019
0:00 W 13 Light Snow 4 100.4 -14 85 -16 -24
12 December 2019
23:00 WNW 10 Light Snow 16 100.4 -15 83 -17 -24
22:00 WNW 13 Cloudy 16 100.4 -15 82 -18 -25
21:00 WNW 12 Cloudy 16 100.4 -16 82 -18 -25
20:00 WNW 10 Cloudy 16 100.4 -16 81 -19 -25
19:00 W 11 gust 16 Cloudy 16 100.4 -17 81 -20 -27
18:00 WNW 12 gust 18 Mainly Clear 16 100.4 -18 79 -21 -28
17:00 WNW 15 Mainly Clear 16 100.3 -18 79 -20 -29
16:00 WNW 13 gust 18 Clear 16 100.3 -18 83 -20 -29
15:00 WNW 13 Light Snow 16 100.3 -19 82 -21 -30
14:00 WNW 16 gust 22 Light Snow 16 100.3 -18 79 -21 -30
13:00 W 7 Cloudy 16 100.3 -18 79 -21 -26
12:00 WNW 9 Mostly Cloudy 24 100.3 -19 79 -21 -28
11:00 WNW 12 Mostly Cloudy 24 100.3 -19 79 -21 -29
10:00 WNW 7 Mostly Cloudy 24 100.3 -19 78 -22 -27
9:00 WNW 12 Light Snow 24 100.2 -17 79 -20 -27
8:00 WNW 13 Light Snow 24 100.2 -16 78 -19 -26
7:00 WNW 9 Light Snow 24 100.2 -16 77 -19 -24
6:00 WNW 12 Cloudy 15 100.1 -15 79 -18 -25
5:00 WNW 10 gust 15 Light Snow 10 100.1 -15 79 -18 -24
4:00 W 11 gust 16 Light Snow 11 100.1 -15 81 -18 -25
3:00 WNW 13 gust 18 Light Snow 6 100.0 -15 83 -17 -25
2:00 WNW 16 Light Snow 6 100.0 -15 82 -17 -26
1:00 WNW 12 gust 17 Light Snow 5 100.0 -15 82 -17 -24
0:00 WNW 12 Light Snow 5 100.0 -15 82 -17 -24

Zoom-in to make a selection

Map of Hudson - Hudson Bay marine weather areas Arviat Airport Baker Lake Airport Chesterfield Inlet Airport Coral Harbour Airport Rankin Inlet Airport Sanikiluaq Airport Whale Cove Airport Cape Dorset Airport Iqaluit Airport Wager Bay Kimmirut Airport Churchill Airport Fort Severn Airport Peawanuck Airport Moosonee Airport Eastmain Airport La Grande Rivière Airport Waskaganish Airport Wemindji Airport Akulivik Airport Inukjuak Airport Ivujivik Airport Kuujjuarapik Airport Puvirnituq Airport Umiujaq Airport Aupaluk Airport Kangiqsujuaq Airport Kangirsuk Airport Kangiqsualujjuaq Airport Kuujjuaq Airport Quaqtaq Airport Salluit Airport Tasiujaq Airport Cape Kakkiviak
Legend:
buoy Buoy
land station Land Station

Hudson - Hudson Bay Area

Another Region

What we are doing

Date modified: